Time;durP1;ratioP1;P1;durP2;ratioP2;P2;SDS_P1;SDS_P2;PMS_P1;PMS_P2;Temp;Humidity;BMP_temperature;BMP_pressure;BME280_temperature;BME280_humidity;BME280_pressure;Samples;Min_cycle;Max_cycle;Signal;HPM_P1;HPM_P2
2022/06/13 00:02:03;;;;;;;9.80;5.33;;;;;;;18.79;100.00;99113.02;1722435;83;21030;-82
2022/06/13 00:04:30;;;;;;;8.10;5.45;;;;;;;18.78;100.00;99109.44;1722765;83;20994;-82
2022/06/13 00:07:01;;;;;;;10.13;5.70;;;;;;;18.77;100.00;99102.31;1717918;83;21452;-81
2022/06/13 00:09:30;;;;;;;10.37;5.70;;;;;;;18.80;100.00;99106.45;1718498;83;21062;-82
2022/06/13 00:11:58;;;;;;;10.35;5.58;;;;;;;18.79;100.00;99105.62;1718046;84;21058;-82
2022/06/13 00:14:27;;;;;;;12.47;6.15;;;;;;;18.77;100.00;99106.97;1718193;84;21449;-82
2022/06/13 00:16:56;;;;;;;8.45;5.47;;;;;;;18.74;100.00;99103.34;1717920;84;21050;-82
2022/06/13 00:19:23;;;;;;;10.38;5.67;;;;;;;18.72;100.00;99097.30;1718239;84;21009;-81
2022/06/13 00:21:51;;;;;;;10.35;5.97;;;;;;;18.67;100.00;99089.81;1717960;84;21030;-81
2022/06/13 00:24:20;;;;;;;9.55;6.15;;;;;;;18.67;100.00;99088.98;1718092;83;20987;-81
2022/06/13 00:26:48;;;;;;;10.90;5.67;;;;;;;18.64;100.00;99093.03;1717952;83;21014;-81
2022/06/13 00:29:17;;;;;;;9.68;5.83;;;;;;;18.61;100.00;99088.08;1717750;84;21065;-80
2022/06/13 00:31:44;;;;;;;10.08;5.53;;;;;;;18.60;100.00;99077.64;1717224;84;21037;-81
2022/06/13 00:34:11;;;;;;;10.08;6.17;;;;;;;18.62;100.00;99073.29;1717712;83;21037;-81
2022/06/13 00:36:40;;;;;;;10.35;6.17;;;;;;;18.65;100.00;99074.72;1717541;84;21022;-81
2022/06/13 00:39:07;;;;;;;14.15;6.47;;;;;;;18.67;100.00;99081.59;1691497;84;21067;-81
2022/06/13 00:41:38;;;;;;;13.45;6.10;;;;;;;18.72;100.00;99076.76;1717849;84;20995;-81
2022/06/13 00:44:10;;;;;;;;;;;;;;;18.75;100.00;99084.45;1720524;84;20999;-82
2022/06/13 00:46:37;;;;;;;11.12;6.45;;;;;;;18.79;100.00;99093.31;1688532;85;20131;-81
2022/06/13 00:49:11;;;;;;;10.48;6.17;;;;;;;18.85;100.00;99103.84;1688800;85;21002;-81
2022/06/13 00:51:50;;;;;;;12.50;6.47;;;;;;;18.91;100.00;99119.30;1666071;86;21063;-79
2022/06/13 00:54:18;;;;;;;13.15;6.20;;;;;;;18.98;100.00;99120.47;1666466;86;21061;-81
2022/06/13 00:56:47;;;;;;;10.93;6.15;;;;;;;19.01;100.00;99124.64;1666280;86;20995;-81
2022/06/13 00:59:17;;;;;;;12.35;6.70;;;;;;;19.01;100.00;99127.38;1666139;86;21074;-80
2022/06/13 01:01:45;;;;;;;11.68;6.37;;;;;;;19.00;100.00;99126.56;1666074;86;20988;-79
2022/06/13 01:04:12;;;;;;;11.40;6.20;;;;;;;18.97;100.00;99122.94;1665829;86;21619;-79
2022/06/13 01:06:44;;;;;;;8.10;6.00;;;;;;;18.96;100.00;99126.74;1658580;86;21023;-80
2022/06/13 01:09:12;;;;;;;11.43;6.65;;;;;;;18.91;100.00;99117.92;1558611;92;21337;-80
2022/06/13 01:11:47;;;;;;;10.65;6.08;;;;;;;18.89;100.00;99125.56;1558418;92;21050;-79
2022/06/13 01:14:38;;;;;;;11.85;6.17;;;;;;;18.88;100.00;99121.15;1544198;93;21182;-79
2022/06/13 01:17:28;;;;;;;13.45;6.33;;;;;;;18.85;100.00;99125.74;1544485;93;21135;-79
2022/06/13 01:20:16;;;;;;;15.15;6.87;;;;;;;18.82;100.00;99124.04;1544554;93;21087;-78
2022/06/13 01:23:06;;;;;;;9.83;5.72;;;;;;;18.79;100.00;99124.80;1499819;95;21180;-79
2022/06/13 01:26:07;;;;;;;11.03;6.22;;;;;;;18.75;100.00;99131.00;1471683;98;21074;-79
2022/06/13 01:29:00;;;;;;;10.53;6.05;;;;;;;18.71;100.00;99129.30;1472092;98;21152;-78
2022/06/13 01:32:07;;;;;;;9.83;6.72;;;;;;;18.66;100.00;99132.49;1472325;93;21142;-79
2022/06/13 01:34:59;;;;;;;13.10;6.35;;;;;;;18.61;100.00;99152.41;1469568;98;21129;-79
2022/06/13 01:37:47;;;;;;;12.23;6.33;;;;;;;18.59;100.00;99158.12;1472194;98;21105;-77
2022/06/13 01:41:08;;;;;;;11.83;6.95;;;;;;;18.57;100.00;99131.54;1469509;98;21129;-78
2022/06/13 01:44:02;;;;;;;9.78;6.30;;;;;;;18.50;100.00;99159.60;1508803;95;21135;-76
2022/06/13 01:46:44;;;;;;;10.68;6.58;;;;;;;18.39;100.00;99139.39;1506906;95;21146;-77
2022/06/13 01:49:48;;;;;;;11.63;6.42;;;;;;;18.31;100.00;99110.21;1403105;101;21149;-76
2022/06/13 01:52:42;;;;;;;11.25;6.80;;;;;;;18.21;100.00;99122.63;1404197;102;21145;-77
2022/06/13 01:55:46;;;;;;;13.10;6.58;;;;;;;18.15;100.00;99096.77;1394087;103;21168;-76
2022/06/13 01:58:37;;;;;;;11.38;6.50;;;;;;;18.09;100.00;99090.38;1364434;105;21153;-77
2022/06/13 02:01:10;;;;;;;12.03;6.97;;;;;;;18.06;100.00;99088.67;1370949;105;21168;-77
2022/06/13 02:03:43;;;;;;;;;;;;;;;18.03;100.00;99088.08;1387188;104;21265;-77
2022/06/13 02:06:25;;;;;;;12.70;6.43;;;;;;;18.02;100.00;99091.91;1368975;105;20136;-77
2022/06/13 02:09:11;;;;;;;10.80;6.60;;;;;;;18.02;100.00;99093.80;1429534;100;21195;-78
2022/06/13 02:11:46;;;;;;;13.18;6.90;;;;;;;17.99;100.00;99088.29;1370998;102;21219;-77
2022/06/13 02:14:44;;;;;;;10.30;6.58;;;;;;;17.99;100.00;99088.29;1398554;103;21191;-77
2022/06/13 02:17:21;;;;;;;15.23;6.40;;;;;;;17.98;100.00;99075.67;1398599;103;21180;-78
2022/06/13 02:19:55;;;;;;;11.35;6.10;;;;;;;17.99;100.00;99073.24;1398650;103;21197;-78
2022/06/13 02:22:39;;;;;;;10.63;6.53;;;;;;;17.98;100.00;99066.09;1398596;103;21161;-77
2022/06/13 02:25:22;;;;;;;13.22;7.12;;;;;;;18.00;100.00;99068.59;1383062;104;21146;-77
2022/06/13 02:28:03;;;;;;;14.45;6.85;;;;;;;18.02;100.00;99068.66;1377916;104;21122;-76
2022/06/13 02:30:35;;;;;;;12.33;7.33;;;;;;;18.04;100.00;99072.50;1377504;104;21161;-79
2022/06/13 02:33:14;;;;;;;;;;;;;;;18.06;100.00;99067.64;1380077;104;21150;-76
2022/06/13 02:35:48;;;;;;;12.13;6.65;;;;;;;18.07;100.00;99066.55;1403268;100;20221;-78
2022/06/13 02:38:27;;;;;;;13.38;7.12;;;;;;;18.08;100.00;99076.42;1419911;101;21110;-77
2022/06/13 02:41:07;;;;;;;14.10;7.00;;;;;;;18.09;100.00;99082.17;1420073;101;21111;-77
2022/06/13 02:43:52;;;;;;;13.15;7.15;;;;;;;18.09;100.00;99079.98;1419752;100;21688;-78
2022/06/13 02:46:36;;;;;;;18.48;7.42;;;;;;;18.08;100.00;99079.16;1523312;91;21599;-78
2022/06/13 02:49:20;;;;;;;15.03;7.33;;;;;;;18.09;100.00;99081.35;1539768;93;21058;-78
2022/06/13 02:52:24;;;;;;;21.65;8.40;;;;;;;18.12;100.00;99080.33;1574027;91;21162;-77
2022/06/13 02:54:59;;;;;;;17.00;7.62;;;;;;;18.15;100.00;99076.25;1542008;93;21658;-77
2022/06/13 02:57:55;;;;;;;15.45;7.45;;;;;;;18.18;100.00;99072.52;1574673;91;21055;-77
2022/06/13 03:00:52;;;;;;;13.45;7.78;;;;;;;18.21;100.00;99067.09;1538826;93;21114;-77
2022/06/13 03:03:50;;;;;;;15.68;8.33;;;;;;;18.26;100.00;99066.36;1599344;89;21151;-77
2022/06/13 03:06:47;;;;;;;12.68;7.37;;;;;;;18.30;100.00;99068.34;1572770;88;21047;-78
2022/06/13 03:09:19;;;;;;;12.47;6.78;;;;;;;18.37;100.00;99066.83;1621868;89;21073;-79
2022/06/13 03:11:52;;;;;;;14.23;6.80;;;;;;;18.42;100.00;99062.00;1619047;89;21110;-78
2022/06/13 03:14:42;;;;;;;11.18;6.87;;;;;;;18.47;100.00;99057.44;1619384;89;21094;-77
2022/06/13 03:17:22;;;;;;;12.95;7.25;;;;;;;18.53;100.00;99061.91;1619641;89;21066;-78
2022/06/13 03:20:14;;;;;;;12.70;6.78;;;;;;;18.61;100.00;99066.17;1619454;89;21058;-78
2022/06/13 03:22:55;;;;;;;11.25;7.17;;;;;;;18.70;100.00;99069.34;1619486;89;21084;-79
2022/06/13 03:25:47;;;;;;;12.58;6.53;;;;;;;18.81;100.00;99079.37;1619186;89;21105;-79
2022/06/13 03:28:45;;;;;;;14.60;7.20;;;;;;;18.91;100.00;99080.09;1619919;89;21082;-79
2022/06/13 03:31:34;;;;;;;11.60;6.70;;;;;;;19.01;100.00;99087.11;1620502;89;21154;-78
2022/06/13 03:34:10;;;;;;;15.32;7.37;;;;;;;19.14;100.00;99086.78;1597066;90;21071;-76
2022/06/13 03:36:47;;;;;;;12.73;7.15;;;;;;;19.27;100.00;99108.07;1596932;90;21068;-79
2022/06/13 03:39:31;;;;;;;15.60;6.72;;;;;;;19.37;100.00;99126.05;1596664;90;21016;-78
2022/06/13 03:42:26;;;;;;;13.18;6.58;;;;;;;19.50;100.00;99139.39;1576594;91;21121;-78
2022/06/13 03:45:05;;;;;;;13.35;6.83;;;;;;;19.64;100.00;99152.76;1576716;91;21077;-77
2022/06/13 03:47:38;;;;;;;15.20;6.83;;;;;;;19.79;100.00;99159.02;1576469;90;21081;-77
2022/06/13 03:50:13;;;;;;;13.70;6.80;;;;;;;19.91;100.00;99174.27;1576786;91;21045;-79
2022/06/13 03:52:45;;;;;;;15.28;7.00;;;;;;;20.05;100.00;99187.08;1576520;91;21113;-78
2022/06/13 03:55:16;;;;;;;12.45;6.60;;;;;;;20.20;100.00;99205.69;1576797;91;21080;-78
2022/06/13 03:57:57;;;;;;;11.40;6.72;;;;;;;20.33;100.00;99214.07;1576858;91;21073;-78
2022/06/13 04:00:28;;;;;;;12.15;6.45;;;;;;;20.46;100.00;99219.16;1576466;90;21113;-78
2022/06/13 04:02:56;;;;;;;13.08;7.00;;;;;;;20.60;100.00;99238.00;1574264;91;21097;-78
2022/06/13 04:05:42;;;;;;;14.87;7.00;;;;;;;20.72;100.00;99255.21;1570862;91;21069;-78
2022/06/13 04:08:11;;;;;;;10.80;6.55;;;;;;;20.82;100.00;99259.45;1587857;88;21105;-78
2022/06/13 04:11:02;;;;;;;9.60;6.00;;;;;;;20.95;100.00;99262.89;1601534;88;21061;-78
2022/06/13 04:13:50;;;;;;;14.35;6.22;;;;;;;21.08;100.00;99268.52;1532361;94;21098;-79
2022/06/13 04:16:32;;;;;;;24.82;6.97;;;;;;;21.25;100.00;99281.61;1508169;94;21065;-78
2022/06/13 04:19:23;;;;;;;21.15;6.53;;;;;;;21.40;100.00;99281.73;1479610;97;21117;-79
2022/06/13 04:22:05;;;;;;;19.30;6.70;;;;;;;21.54;100.00;99285.48;1473032;96;21049;-78
2022/06/13 04:25:02;;;;;;;16.23;6.05;;;;;;;21.74;100.00;99287.56;1528380;94;21066;-78
2022/06/13 04:27:43;;;;;;;10.50;5.17;;;;;;;21.98;100.00;99290.78;1528182;94;21082;-78
2022/06/13 04:30:20;;;;;;;21.12;5.62;;;;;;;22.28;100.00;99306.70;1528217;94;21085;-79
2022/06/13 04:33:16;;;;;;;13.32;5.10;;;;;;;22.56;100.00;99319.25;1528115;94;21141;-78
2022/06/13 04:35:45;;;;;;;10.28;4.50;;;;;;;22.79;100.00;99330.08;1528232;94;21063;-78
2022/06/13 04:38:13;;;;;;;11.60;4.80;;;;;;;22.98;100.00;99340.91;1529671;94;21063;-77
2022/06/13 04:40:44;;;;;;;14.07;5.22;;;;;;;23.16;100.00;99345.69;1531071;94;21136;-77
2022/06/13 04:43:13;;;;;;;10.03;5.30;;;;;;;23.31;100.00;99352.08;1536831;93;21123;-76
2022/06/13 04:46:00;;;;;;;18.92;6.75;;;;;;;23.43;100.00;99359.30;1536816;93;21145;-78
2022/06/13 04:48:29;;;;;;;18.27;6.75;;;;;;;23.52;100.00;99367.30;1536902;93;21075;-78
2022/06/13 04:51:03;;;;;;;16.77;5.58;;;;;;;23.62;100.00;99371.47;1536731;93;21131;-78
2022/06/13 04:53:36;;;;;;;15.93;5.65;;;;;;;23.77;100.00;99376.73;1536863;93;21102;-77
2022/06/13 04:56:03;;;;;;;13.18;4.97;;;;;;;23.95;100.00;99378.15;1499802;96;21061;-78
2022/06/13 04:58:37;;;;;;;9.93;4.85;;;;;;;24.09;100.00;99391.67;1499570;96;21108;-78
2022/06/13 05:01:19;;;;;;;14.25;4.67;;;;;;;24.17;100.00;99391.66;1476591;96;21110;-79
2022/06/13 05:03:47;;;;;;;12.37;5.08;;;;;;;24.20;100.00;99395.26;1476797;97;21078;-78
2022/06/13 05:06:42;;;;;;;12.78;5.25;;;;;;;24.29;100.00;99399.11;1459169;97;21129;-78
2022/06/13 05:09:26;;;;;;;22.07;5.67;;;;;;;24.39;100.00;99401.05;1492044;93;21074;-79
2022/06/13 05:12:20;;;;;;;10.13;4.85;;;;;;;24.57;100.00;99405.20;1543477;92;21568;-82
2022/06/13 05:15:02;;;;;;;32.33;6.50;;;;;;;24.73;100.00;99405.99;1523041;94;21088;-78
2022/06/13 05:17:50;;;;;;;11.93;4.80;;;;;;;24.88;100.00;99405.96;1535349;93;21092;-80
2022/06/13 05:21:00;;;;;;;12.00;5.37;;;;;;;25.06;100.00;99404.52;1536175;92;21636;-79
2022/06/13 05:23:56;;;;;;;11.22;5.80;;;;;;;25.22;100.00;99415.52;1536567;93;21152;-75
2022/06/13 05:26:29;;;;;;;18.85;10.88;;;;;;;25.29;100.00;99418.27;1536810;93;21089;-78
2022/06/13 05:29:00;;;;;;;16.85;10.50;;;;;;;25.32;100.00;99433.47;1537405;93;21086;-76
2022/06/13 05:31:27;;;;;;;14.95;7.78;;;;;;;25.30;100.00;99435.69;1536674;93;21070;-78
2022/06/13 05:33:54;;;;;;;8.03;5.00;;;;;;;25.34;100.00;99429.32;1536724;92;21038;-77
2022/06/13 05:36:24;;;;;;;8.25;4.92;;;;;;;25.53;100.00;99429.52;1520714;94;21072;-79
2022/06/13 05:39:04;;;;;;;21.12;13.22;;;;;;;25.81;100.00;99434.59;1521371;94;21060;-83
2022/06/13 05:41:31;;;;;;;14.18;7.90;;;;;;;26.05;100.00;99442.50;1519479;94;21251;-84
2022/06/13 05:44:02;;;;;;;6.35;4.83;;;;;;;26.23;100.00;99438.20;1519316;95;21146;-80
2022/06/13 05:46:32;;;;;;;9.23;4.97;;;;;;;26.46;100.00;99444.11;1495042;95;21593;-81
2022/06/13 05:48:59;;;;;;;9.30;4.28;;;;;;;26.74;100.00;99440.25;1518700;95;21090;-79
2022/06/13 05:51:26;;;;;;;7.05;4.45;;;;;;;26.97;100.00;99448.32;1518667;95;21608;-78
2022/06/13 05:53:56;;;;;;;7.95;4.70;;;;;;;26.97;100.00;99454.72;1572422;91;21115;-78
2022/06/13 05:56:24;;;;;;;23.50;5.95;;;;;;;27.11;100.00;99451.22;1601227;90;21074;-79
2022/06/13 05:58:52;;;;;;;10.58;5.35;;;;;;;27.37;100.00;99454.55;1679947;85;21070;-80
2022/06/13 06:01:19;;;;;;;11.30;5.10;;;;;;;27.56;100.00;99458.75;1720723;83;21065;-77
2022/06/13 06:03:46;;;;;;;14.05;5.03;;;;;;;27.59;100.00;99463.15;1684712;85;21468;-78
2022/06/13 06:06:18;;;;;;;7.22;4.67;;;;;;;27.68;100.00;99461.11;1684198;85;21008;-77
2022/06/13 06:08:45;;;;;;;10.35;5.15;;;;;;;27.71;100.00;99462.72;1583662;89;21646;-80
2022/06/13 06:11:13;;;;;;;8.18;4.78;;;;;;;27.90;100.00;99455.76;1637715;88;21137;-78
2022/06/13 06:13:40;;;;;;;6.15;4.70;;;;;;;28.13;100.00;99460.17;1637711;88;21127;-78
2022/06/13 06:16:07;;;;;;;10.72;5.25;;;;;;;28.29;100.00;99467.70;1637636;88;21044;-76
2022/06/13 06:18:34;;;;;;;6.90;4.20;;;;;;;28.33;100.00;99475.69;1637212;88;21107;-75
2022/06/13 06:21:02;;;;;;;8.75;4.75;;;;;;;28.25;100.00;99463.31;1637577;88;21134;-82
2022/06/13 06:23:31;;;;;;;7.87;4.47;;;;;;;28.32;100.00;99474.06;1618528;88;21116;-82
2022/06/13 06:25:58;;;;;;;12.68;5.22;;;;;;;28.54;100.00;99460.91;1610506;88;21139;-80
2022/06/13 06:28:26;;;;;;;12.15;5.10;;;;;;;28.80;100.00;99471.02;1615699;88;21017;-80
2022/06/13 06:30:56;;;;;;;5.67;4.30;;;;;;;28.86;100.00;99474.53;1637301;88;21093;-80
2022/06/13 06:33:25;;;;;;;16.87;4.85;;;;;;;28.90;100.00;99476.41;1637177;88;21057;-78
2022/06/13 06:35:52;;;;;;;9.55;4.90;;;;;;;29.07;100.00;99471.61;1636947;88;21090;-79
2022/06/13 06:38:21;;;;;;;7.83;5.00;;;;;;;29.21;100.00;99477.80;1637121;88;21030;-80
2022/06/13 06:40:49;;;;;;;7.60;4.90;;;;;;;29.32;100.00;99473.11;1637437;88;21042;-83
2022/06/13 06:43:19;;;;;;;7.45;4.47;;;;;;;29.44;100.00;99469.78;1616630;88;21006;-81
2022/06/13 06:45:48;;;;;;;9.08;5.80;;;;;;;29.49;100.00;99475.83;1637449;88;21052;-82
2022/06/13 06:48:19;;;;;;;7.97;4.65;;;;;;;29.46;100.00;99477.26;1637041;88;21066;-79
2022/06/13 06:50:49;;;;;;;13.77;5.63;;;;;;;29.39;100.00;99485.78;1637153;88;21085;-78
2022/06/13 06:53:17;;;;;;;9.30;4.67;;;;;;;29.47;100.00;99473.35;1636930;88;21037;-77
2022/06/13 07:01:17;;;;;;;11.18;5.03;;;;;;;29.88;100.00;99473.87;1636839;88;21093;-78
2022/06/13 07:03:45;;;;;;;12.93;5.28;;;;;;;30.10;100.00;99473.09;1637254;88;21511;-76
2022/06/13 07:06:12;;;;;;;11.22;5.30;;;;;;;30.29;100.00;99467.89;1676233;85;21105;-83
2022/06/13 07:08:39;;;;;;;14.33;5.28;;;;;;;30.46;100.00;99472.81;1683336;85;21144;-74
2022/06/13 07:13:59;;;;;;;6.65;4.55;;;;;;;30.73;100.00;99479.38;1683815;85;21081;-81
2022/06/13 07:16:28;;;;;;;8.40;4.33;;;;;;;30.85;100.00;99479.61;1684006;85;21640;-78
2022/06/13 07:18:55;;;;;;;18.87;4.95;;;;;;;31.03;100.00;99484.16;1683496;85;21052;-75
2022/06/13 07:21:22;;;;;;;8.25;4.67;;;;;;;31.12;100.00;99493.16;1683966;85;21025;-81
2022/06/13 07:23:52;;;;;;;20.57;6.87;;;;;;;31.27;100.00;99487.70;1708942;84;21065;-79
2022/06/13 07:26:19;;;;;;;16.02;6.30;;;;;;;31.31;100.00;99492.91;1713248;80;20970;-79
2022/06/13 07:28:48;;;;;;;15.83;8.70;;;;;;;31.35;100.00;99498.09;1713494;84;21029;-79
2022/06/13 07:31:21;;;;;;;10.40;5.15;;;;;;;31.47;100.00;99501.09;1712236;84;21001;-76
2022/06/13 07:33:49;;;;;;;12.25;5.37;;;;;;;31.52;100.00;99496.78;1711563;84;21152;-73
2022/06/13 07:36:16;;;;;;;6.40;4.33;;;;;;;31.62;100.00;99496.22;1711639;84;21029;-74
2022/06/13 07:38:43;;;;;;;9.45;4.53;;;;;;;31.74;100.00;99497.81;1711687;84;21022;-76
2022/06/13 07:41:17;;;;;;;5.65;4.15;;;;;;;31.81;100.00;99502.34;1711810;84;21057;-81
2022/06/13 07:43:50;;;;;;;9.55;4.55;;;;;;;31.77;100.00;99505.55;1712718;84;21050;-82
2022/06/13 07:46:17;;;;;;;8.65;5.90;;;;;;;31.77;100.00;99500.78;1712421;84;21009;-79
2022/06/13 07:48:47;;;;;;;12.58;7.75;;;;;;;31.78;100.00;99498.24;1711918;84;21033;-75
2022/06/13 07:51:13;;;;;;;10.10;5.08;;;;;;;31.90;100.00;99503.17;1711663;84;21045;-76
2022/06/13 07:53:41;;;;;;;11.53;5.00;;;;;;;32.11;100.00;99499.20;1711059;84;21483;-77
2022/06/13 07:56:12;;;;;;;9.18;4.30;;;;;;;32.18;100.00;99495.91;1711522;84;21069;-76
2022/06/13 07:58:41;;;;;;;8.15;4.40;;;;;;;32.34;100.00;99494.25;1711685;84;20994;-80
2022/06/13 08:01:08;;;;;;;9.40;4.70;;;;;;;32.34;100.00;99492.05;1686909;84;21009;-77
2022/06/13 08:03:36;;;;;;;6.28;4.28;;;;;;;32.24;100.00;99495.17;1662001;84;21022;-80
2022/06/13 08:06:04;;;;;;;8.95;4.35;;;;;;;32.36;100.00;99496.72;1711604;84;21029;-76
2022/06/13 08:08:35;;;;;;;17.10;5.28;;;;;;;32.32;100.00;99495.75;1709184;84;21548;-79
2022/06/13 08:11:03;;;;;;;9.28;4.55;;;;;;;32.27;99.63;99498.71;1709582;83;21277;-81
2022/06/13 08:13:30;;;;;;;17.00;6.00;;;;;;;32.26;100.00;99491.45;1693940;84;21026;-79
2022/06/13 08:15:58;;;;;;;12.00;5.10;;;;;;;32.55;96.92;99501.39;1709301;84;20978;-80
2022/06/13 08:18:26;;;;;;;13.03;5.10;;;;;;;32.84;97.02;99499.88;1709788;84;21029;-80
2022/06/13 08:20:54;;;;;;;8.95;4.58;;;;;;;33.18;93.97;99502.34;1687574;85;21018;-77
2022/06/13 08:23:22;;;;;;;9.38;4.97;;;;;;;33.40;91.72;99499.05;1687410;83;21081;-78
2022/06/13 08:25:49;;;;;;;11.63;5.42;;;;;;;33.60;91.09;99505.27;1698940;84;20998;-78
2022/06/13 08:28:17;;;;;;;8.65;5.28;;;;;;;33.71;86.58;99498.72;1681156;84;21572;-80
2022/06/13 08:30:50;;;;;;;13.65;5.40;;;;;;;33.64;86.28;99497.84;1682738;84;21010;-78
2022/06/13 08:33:18;;;;;;;18.50;12.18;;;;;;;33.54;88.34;99499.63;1699457;84;21018;-77
2022/06/13 08:35:47;;;;;;;10.65;5.22;;;;;;;33.59;91.51;99491.03;1715786;84;21093;-80
2022/06/13 08:38:14;;;;;;;13.05;5.22;;;;;;;33.67;86.53;99492.97;1714510;83;21107;-78
2022/06/13 08:41:15;;;;;;;10.63;5.20;;;;;;;33.79;87.29;99490.84;1715730;83;21048;-78
2022/06/13 08:44:23;;;;;;;10.03;5.33;;;;;;;33.71;78.38;99488.91;1716006;84;21038;-78
2022/06/13 08:47:13;;;;;;;10.05;5.55;;;;;;;33.47;79.87;99480.55;1715744;83;21046;-78
2022/06/13 08:49:46;;;;;;;11.65;5.85;;;;;;;33.22;84.04;99480.92;1715548;83;21035;-79
2022/06/13 08:52:28;;;;;;;11.48;5.67;;;;;;;33.28;88.63;99486.56;1715901;84;21082;-79
2022/06/13 08:55:15;;;;;;;9.75;5.50;;;;;;;33.54;81.95;99485.63;1715644;83;21038;-78
2022/06/13 08:57:48;;;;;;;12.82;5.45;;;;;;;33.64;83.37;99480.19;1713202;84;21500;-79
2022/06/13 09:00:22;;;;;;;9.50;5.45;;;;;;;33.79;81.85;99477.42;1713047;84;21002;-80
2022/06/13 09:03:06;;;;;;;9.60;5.08;;;;;;;33.89;74.70;99471.38;1716101;84;21014;-79
2022/06/13 09:05:51;;;;;;;13.05;6.53;;;;;;;33.86;75.76;99468.69;1715815;83;21054;-81
2022/06/13 09:08:48;;;;;;;25.85;6.05;;;;;;;33.83;73.41;99468.55;1716190;83;21046;-80
2022/06/13 09:11:35;;;;;;;9.70;4.72;;;;;;;33.99;79.48;99471.57;1599575;89;21103;-81
2022/06/13 09:14:20;;;;;;;14.95;5.47;;;;;;;34.33;76.84;99464.05;1585436;89;21037;-76
2022/06/13 09:17:04;;;;;;;12.23;5.22;;;;;;;34.72;70.24;99464.07;1609224;89;21064;-78
2022/06/13 09:20:11;;;;;;;21.62;5.08;;;;;;;34.97;65.03;99460.75;1611235;88;21498;-77
2022/06/13 09:22:55;;;;;;;17.15;5.83;;;;;;;34.88;58.90;99452.98;1583093;90;21049;-79
2022/06/13 09:25:53;;;;;;;9.85;4.95;;;;;;;34.53;58.44;99451.13;1542717;92;21101;-74
2022/06/13 09:28:32;;;;;;;5.97;4.30;;;;;;;34.15;58.35;99462.77;1530837;94;21114;-74
2022/06/13 09:31:13;;;;;;;;;;;;;;;33.63;59.07;99454.74;1536163;92;21077;-74
2022/06/13 09:33:47;;;;;;;8.38;4.25;;;;;;;33.48;61.90;99458.38;1520256;93;20115;-73
2022/06/13 09:36:30;;;;;;;18.20;5.10;;;;;;;33.41;58.79;99467.87;1520323;94;21646;-75
2022/06/13 09:39:08;;;;;;;17.42;5.12;;;;;;;33.26;60.33;99465.08;1452392;97;21634;-78
2022/06/13 09:42:03;;;;;;;6.12;4.03;;;;;;;33.51;65.68;99464.46;1390697;103;21191;-75
2022/06/13 09:45:12;;;;;;;8.28;4.03;;;;;;;34.10;63.87;99457.95;1390361;103;21167;-74
2022/06/13 09:47:57;;;;;;;9.03;4.37;;;;;;;34.72;58.22;99457.64;1392422;101;21178;-77
2022/06/13 09:50:45;;;;;;;9.60;4.33;;;;;;;34.84;57.29;99448.44;1399900;102;21138;-75
2022/06/13 09:53:37;;;;;;;14.35;4.87;;;;;;;35.02;56.43;99450.44;1402249;102;21167;-76
2022/06/13 09:56:13;;;;;;;8.43;4.00;;;;;;;35.26;59.89;99455.29;1401742;102;21140;-75
2022/06/13 09:59:15;;;;;;;11.63;4.08;;;;;;;35.54;56.03;99453.98;1401753;102;21176;-75
2022/06/13 10:01:56;;;;;;;10.25;3.87;;;;;;;35.52;51.61;99446.47;1401797;102;21141;-73
2022/06/13 10:04:43;;;;;;;;;;;;;;;35.63;51.72;99452.45;1403985;102;21118;-75
2022/06/13 10:07:19;;;;;;;10.70;3.83;;;;;;;35.60;51.75;99455.37;1399571;102;20206;-76
2022/06/13 10:10:10;;;;;;;7.03;3.90;;;;;;;35.78;53.24;99454.54;1393434;102;21227;-73
2022/06/13 10:12:47;;;;;;;6.10;3.80;;;;;;;36.07;48.28;99452.58;1393039;103;21217;-75
2022/06/13 10:15:31;;;;;;;15.00;4.42;;;;;;;35.79;45.28;99439.89;1390915;103;21155;-76
2022/06/13 10:18:41;;;;;;;12.60;4.30;;;;;;;35.60;50.37;99441.91;1399342;102;21107;-75
2022/06/13 10:21:44;;;;;;;8.50;4.17;;;;;;;35.71;50.20;99442.48;1413515;101;21185;-75
2022/06/13 10:24:20;;;;;;;8.10;3.87;;;;;;;35.87;47.43;99439.75;1396495;101;21157;-76
2022/06/13 10:27:08;;;;;;;7.62;4.00;;;;;;;35.79;47.15;99435.66;1396254;102;21173;-76
2022/06/13 10:29:56;;;;;;;8.70;4.10;;;;;;;35.80;48.60;99433.10;1418493;98;21259;-76
2022/06/13 10:32:50;;;;;;;7.60;3.62;;;;;;;36.00;51.02;99433.52;1458421;97;21144;-75
2022/06/13 10:35:52;;;;;;;14.53;4.17;;;;;;;36.26;50.21;99434.47;1456421;97;21092;-74
2022/06/13 10:38:49;;;;;;;10.13;4.10;;;;;;;36.59;51.89;99426.34;1536761;89;21123;-74
2022/06/13 10:41:16;;;;;;;9.83;4.25;;;;;;;36.93;50.96;99430.25;1528620;91;21553;-76
2022/06/13 10:43:44;;;;;;;11.40;4.70;;;;;;;36.95;45.91;99427.28;1570247;91;21515;-75
2022/06/13 10:46:13;;;;;;;12.55;7.00;;;;;;;36.40;44.28;99421.98;1548583;91;21141;-73
2022/06/13 10:49:11;;;;;;;20.95;5.83;;;;;;;35.68;45.92;99426.31;1542861;91;21013;-75
2022/06/13 10:51:38;;;;;;;7.90;4.03;;;;;;;34.74;45.09;99432.84;1526147;91;21084;-76
2022/06/13 10:54:20;;;;;;;9.25;5.47;;;;;;;33.68;48.56;99429.34;1525592;94;21068;-76
2022/06/13 10:56:56;;;;;;;22.48;8.20;;;;;;;33.46;55.46;99431.25;1520620;94;21121;-79
2022/06/13 10:59:27;;;;;;;9.35;5.10;;;;;;;33.62;58.85;99434.28;1505079;95;21069;-73
2022/06/13 11:02:01;;;;;;;6.22;3.75;;;;;;;33.59;57.27;99432.73;1444351;99;21126;-72
2022/06/13 11:04:31;;;;;;;8.33;4.00;;;;;;;33.42;59.35;99435.91;1418231;101;21136;-71
2022/06/13 11:07:11;;;;;;;11.50;4.85;;;;;;;33.27;58.34;99426.67;1406146;102;21096;-76
2022/06/13 11:09:49;;;;;;;12.37;5.00;;;;;;;33.02;62.93;99432.03;1418517;101;21200;-75
2022/06/13 11:24:23;;;;;;;16.37;7.40;;;;;;;30.29;86.13;99435.25;1359657;105;21198;-71
2022/06/13 11:29:38;;;;;;;8.10;4.20;;;;;;;29.82;99.36;99426.92;1373111;105;21199;-73
2022/06/13 11:32:09;;;;;;;8.63;3.87;;;;;;;30.22;99.11;99423.72;1348063;105;21125;-75
2022/06/13 11:34:39;;;;;;;6.53;4.00;;;;;;;30.75;88.73;99417.91;1372651;103;21153;-75
2022/06/13 11:37:22;;;;;;;9.93;4.35;;;;;;;31.01;83.06;99419.45;1372334;105;21193;-73
2022/06/13 11:39:51;;;;;;;7.67;5.00;;;;;;;31.23;86.74;99408.78;1382540;104;21137;-73
2022/06/13 11:42:28;;;;;;;12.35;5.80;;;;;;;31.68;81.87;99408.28;1384818;104;21130;-74
2022/06/13 11:45:02;;;;;;;34.83;31.20;;;;;;;32.03;86.63;99409.69;1385358;104;21153;-77
2022/06/13 11:47:45;;;;;;;9.15;5.33;;;;;;;32.26;85.90;99407.00;1360402;106;21148;-77
2022/06/13 11:50:23;;;;;;;11.35;4.12;;;;;;;32.19;84.37;99402.45;1381058;103;21195;-76
2022/06/13 11:55:56;;;;;;;6.47;4.28;;;;;;;31.63;86.64;99403.70;1364173;105;21161;-75
2022/06/13 11:58:30;;;;;;;5.58;3.85;;;;;;;31.50;87.70;99400.46;1380750;103;21158;-75
2022/06/13 12:01:32;;;;;;;34.38;30.60;;;;;;;31.41;83.20;99393.44;1410259;102;21175;-75
2022/06/13 12:04:18;;;;;;;14.55;9.15;;;;;;;31.22;83.66;99385.37;1408852;100;21629;-73
2022/06/13 12:06:49;;;;;;;14.78;6.37;;;;;;;31.12;87.98;99386.48;1408714;102;21096;-71
2022/06/13 12:09:32;;;;;;;15.03;7.28;;;;;;;31.04;86.31;99384.47;1409222;102;21632;-73
2022/06/13 12:12:07;;;;;;;10.68;4.70;;;;;;;30.99;92.15;99392.44;1407790;102;21672;-73
2022/06/13 12:14:38;;;;;;;51.48;20.32;;;;;;;31.11;94.61;99384.85;1402452;102;21177;-73
2022/06/13 12:17:29;;;;;;;31.77;26.65;;;;;;;31.54;94.93;99378.55;1380720;103;21128;-74
2022/06/13 12:20:09;;;;;;;11.53;7.75;;;;;;;32.12;89.02;99375.58;1404006;102;21130;-73
2022/06/13 12:23:06;;;;;;;15.50;7.42;;;;;;;32.73;85.22;99366.47;1398099;101;21120;-75
2022/06/13 12:25:38;;;;;;;24.02;17.60;;;;;;;32.99;74.51;99367.48;1401412;101;21091;-75
2022/06/13 12:28:14;;;;;;;8.33;4.80;;;;;;;32.99;73.22;99361.33;1389491;102;21653;-74
2022/06/13 12:31:02;;;;;;;7.78;5.10;;;;;;;33.06;65.40;99350.42;1381234;103;21068;-74
2022/06/13 12:33:46;;;;;;;17.05;8.40;;;;;;;32.96;65.49;99348.59;1412562;102;21135;-73
2022/06/13 12:36:58;;;;;;;7.35;4.50;;;;;;;33.11;70.22;99348.83;1412481;102;21126;-75
2022/06/13 12:39:42;;;;;;;7.03;5.30;;;;;;;33.47;70.72;99342.43;1407047;102;21121;-77